Aviation

Port-au-Prince

FTHA31 MTPP 221100
TAF MTPP 221100Z 2212/2312 10008KT 8000 FEW020
BECMG 2219/2223 30012KT
PROB30 TEMPO 2300/2304 4500 SHRA SCT014CB BKN040
BECMG 2308/2312 VRB02KT 9000 NSW FEW020=


Cap-Haïtien

FTHA31 MTCH 221100
TAF MTCH 221100Z 2212/2312 VRB02KT 9000 FEW025
BECMG 2216/2220 05012KT
FM230400 VRB02KT 8000 NSC=